Time;durP1;ratioP1;P1;durP2;ratioP2;P2;SDS_P1;SDS_P2;PMS_P1;PMS_P2;Temp;Humidity;BMP_temperature;BMP_pressure;BME280_temperature;BME280_humidity;BME280_pressure;Samples;Min_cycle;Max_cycle;Signal;HPM_P1;HPM_P2
2021/11/25 00:00:03;;;;;;;;;;;;;;;;;;171969;28;1070;-49
2021/11/25 00:00:08;;;;;;;;;;;;;;;;;;171364;28;1189;-51
2021/11/25 00:00:14;;;;;;;;;;;;;;;;;;171310;28;1148;-50
2021/11/25 00:00:19;;;;;;;;;;;;;;;;;;171429;28;810;-50
2021/11/25 00:00:24;;;;;;;;;;;;;;;;;;171350;28;1207;-50
2021/11/25 00:00:29;;;;;;;;;;;;;;;;;;171401;28;837;-51
2021/11/25 00:00:34;;;;;;;;;;;;;;;;;;171397;28;782;-49
2021/11/25 00:00:40;;;;;;;;;;;;;;;;;;171299;28;1198;-49
2021/11/25 00:00:45;;;;;;;;;;;;;;;;;;171360;28;995;-49
2021/11/25 00:00:50;;;;;;;;;;;;;;;;;;171325;28;1198;-49
2021/11/25 00:00:55;;;;;;;;;;;;;;;;;;171444;28;790;-49
2021/11/25 00:01:00;;;;;;;;;;;;;;;;;;171263;28;1120;-52
2021/11/25 00:01:06;;;;;;;;;;;;;;;;;;171376;28;772;-51
2021/11/25 00:01:11;;;;;;;;;;;;;;;;;;171360;28;1174;-51
2021/11/25 00:01:16;;;;;;;;;;;;;;;;;;171404;28;790;-51
2021/11/25 00:01:21;;;;;;;;;;;;;;;;;;171447;28;909;-50
2021/11/25 00:01:26;;;;;;;;;;;;;;;;;;171342;28;1345;-51
2021/11/25 00:01:31;;;;;;;;;;;;;;;;;;171446;28;798;-50
2021/11/25 00:01:37;;;;;;;;;;;;;;;;;;171290;28;1197;-51
2021/11/25 00:01:42;;;;;;;;;;;;;;;;;;171380;28;992;-51
2021/11/25 00:01:47;;;;;;;;;;;;;;;;;;171183;28;1233;-51
2021/11/25 00:01:52;;;;;;;;;;;;;;;;;;171431;28;1015;-50
2021/11/25 00:01:57;;;;;;;;;;;;;;;;;;171273;28;821;-52
2021/11/25 00:02:03;;;;;;;;;;;;;;;;;;171231;28;976;-51
2021/11/25 00:02:08;;;;;;;;;;;;;;;;;;172037;28;849;-51
2021/11/25 00:02:13;;;;;;;;;;;;;;;;;;172059;28;1186;-49
2021/11/25 00:02:18;;;;;;;;;;;;;;;;;;172058;28;774;-49
2021/11/25 00:02:23;;;;;;;;;;;;;;;;;;172075;28;1170;-50
2021/11/25 00:02:29;;;;;;;;;;;;;;;;;;172155;28;836;-50
2021/11/25 00:02:34;;;;;;;;;;;;;;;;;;172031;28;1158;-51
2021/11/25 00:02:39;;;;;;;;;;;;;;;;;;171633;28;4571;-50
2021/11/25 00:02:44;;;;;;;;;;;;;;;;;;172092;28;1038;-49
2021/11/25 00:02:49;;;;;;;;;;;;;;;;;;172095;28;1315;-50
2021/11/25 00:02:54;;;;;;;;;;;;;;;;;;172122;28;888;-50
2021/11/25 00:03:00;;;;;;;;;;;;;;;;;;172087;28;1153;-51
2021/11/25 00:03:05;;;;;;;;;;;;;;;;;;172081;28;956;-51
2021/11/25 00:03:10;;;;;;;;;;;;;;;;;;171622;28;1499;-52
2021/11/25 00:03:16;;;;;;;;;;;;;;;;;;171979;28;915;-51
2021/11/25 00:03:21;;;;;;;;;;;;;;;;;;171997;28;1162;-51
2021/11/25 00:03:26;;;;;;;;;;;;;;;;;;172073;28;921;-49
2021/11/25 00:03:31;;;;;;;;;;;;;;;;;;172107;28;928;-51
2021/11/25 00:03:36;;;;;;;;;;;;;;;;;;172057;28;1253;-51
2021/11/25 00:03:42;;;;;;;;;;;;;;;;;;172069;28;920;-49
2021/11/25 00:03:47;;;;;;;;;;;;;;;;;;171903;28;1421;-49
2021/11/25 00:03:54;;;;;;;;;;;;;;;;;;172018;28;822;-50
2021/11/25 00:03:59;;;;;;;;;;;;;;;;;;171863;28;1265;-51
2021/11/25 00:04:04;;;;;;;;;;;;;;;;;;171995;28;939;-52
2021/11/25 00:04:09;;;;;;;;;;;;;;;;;;171990;28;1303;-51
2021/11/25 00:04:15;;;;;;;;;;;;;;;;;;171966;28;959;-51
2021/11/25 00:04:20;;;;;;;;;;;;;;;;;;171959;28;1233;-51
2021/11/25 00:04:25;;;;;;;;;;;;;;;;;;171275;28;1958;-50
2021/11/25 00:04:30;;;;;;;;;;;;;;;;;;171272;28;884;-52
2021/11/25 00:04:35;;;;;;;;;;;;;;;;;;171235;28;1103;-51
2021/11/25 00:04:41;;;;;;;;;;;;;;;;;;171306;28;818;-50
2021/11/25 00:04:46;;;;;;;;;;;;;;;;;;171218;28;1158;-52
2021/11/25 00:04:51;;;;;;;;;;;;;;;;;;171332;28;476;-51
2021/11/25 00:04:56;;;;;;;;;;;;;;;;;;171222;28;1210;-53
2021/11/25 00:05:02;;;;;;;;;;;;;;;;;;171276;28;1118;-50
2021/11/25 00:05:07;;;;;;;;;;;;;;;;;;171325;28;1159;-51
2021/11/25 00:05:12;;;;;;;;;;;;;;;;;;171427;28;860;-50
2021/11/25 00:05:18;;;;;;;;;;;;;;;;;;171389;28;911;-50
2021/11/25 00:05:23;;;;;;;;;;;;;;;;;;170805;29;983;-51
2021/11/25 00:05:28;;;;;;;;;;;;;;;;;;170680;29;835;-49
2021/11/25 00:05:33;;;;;;;;;;;;;;;;;;171066;28;1211;-52
2021/11/25 00:05:38;;;;;;;;;;;;;;;;;;171012;28;1620;-49
2021/11/25 00:05:44;;;;;;;;;;;;;;;;;;170470;28;1817;-50
2021/11/25 00:05:49;;;;;;;;;;;;;;;;;;171236;28;817;-49
2021/11/25 00:05:55;;;;;;;;;;;;;;;;;;171468;28;1186;-50
2021/11/25 00:06:00;;;;;;;;;;;;;;;;;;171926;28;1586;-51
2021/11/25 00:06:05;;;;;;;;;;;;;;;;;;171400;28;1603;-51
2021/11/25 00:06:10;;;;;;;;;;;;;;;;;;171953;28;867;-51
2021/11/25 00:06:16;;;;;;;;;;;;;;;;;;171379;28;827;-51
2021/11/25 00:06:21;;;;;;;;;;;;;;;;;;171829;28;1234;-50
2021/11/25 00:06:26;;;;;;;;;;;;;;;;;;172071;28;805;-50
2021/11/25 00:06:31;;;;;;;;;;;;;;;;;;171996;28;1177;-49
2021/11/25 00:06:36;;;;;;;;;;;;;;;;;;171984;28;1050;-51
2021/11/25 00:06:41;;;;;;;;;;;;;;;;;;171568;28;4440;-53
2021/11/25 00:06:47;;;;;;;;;;;;;;;;;;171970;28;967;-51
2021/11/25 00:06:52;;;;;;;;;;;;;;;;;;171951;28;1201;-50
2021/11/25 00:06:57;;;;;;;;;;;;;;;;;;172007;28;781;-50
2021/11/25 00:07:03;;;;;;;;;;;;;;;;;;172058;28;821;-51
2021/11/25 00:07:08;;;;;;;;;;;;;;;;;;171986;28;1185;-50
2021/11/25 00:07:13;;;;;;;;;;;;;;;;;;172107;28;923;-49
2021/11/25 00:07:19;;;;;;;;;;;;;;;;;;171986;28;1273;-51
2021/11/25 00:07:24;;;;;;;;;;;;;;;;;;172091;28;963;-51
2021/11/25 00:07:29;;;;;;;;;;;;;;;;;;172065;28;1166;-51
2021/11/25 00:07:34;;;;;;;;;;;;;;;;;;172086;28;857;-50
2021/11/25 00:07:40;;;;;;;;;;;;;;;;;;171932;28;1194;-50
2021/11/25 00:07:45;;;;;;;;;;;;;;;;;;172013;28;809;-50
2021/11/25 00:07:51;;;;;;;;;;;;;;;;;;172042;28;759;-50
2021/11/25 00:07:56;;;;;;;;;;;;;;;;;;171974;28;1011;-51
2021/11/25 00:08:04;;;;;;;;;;;;;;;;;;172049;28;863;-50
2021/11/25 00:08:09;;;;;;;;;;;;;;;;;;171370;28;967;-49
2021/11/25 00:08:14;;;;;;;;;;;;;;;;;;171400;28;1226;-51
2021/11/25 00:08:19;;;;;;;;;;;;;;;;;;171439;28;726;-50
2021/11/25 00:08:25;;;;;;;;;;;;;;;;;;171390;28;892;-52
2021/11/25 00:08:30;;;;;;;;;;;;;;;;;;171322;28;1377;-51
2021/11/25 00:08:35;;;;;;;;;;;;;;;;;;171325;28;785;-51
2021/11/25 00:08:41;;;;;;;;;;;;;;;;;;171048;28;1570;-51
2021/11/25 00:08:46;;;;;;;;;;;;;;;;;;171305;28;904;-51
2021/11/25 00:08:51;;;;;;;;;;;;;;;;;;171515;28;1186;-51
2021/11/25 00:08:56;;;;;;;;;;;;;;;;;;172147;28;860;-50
2021/11/25 00:09:02;;;;;;;;;;;;;;;;;;171921;28;1067;-49
2021/11/25 00:09:07;;;;;;;;;;;;;;;;;;172022;28;808;-49
2021/11/25 00:09:12;;;;;;;;;;;;;;;;;;172112;28;885;-50
2021/11/25 00:09:17;;;;;;;;;;;;;;;;;;172059;28;1194;-49
2021/11/25 00:09:23;;;;;;;;;;;;;;;;;;172080;28;881;-50
2021/11/25 00:09:28;;;;;;;;;;;;;;;;;;172022;28;1174;-50
2021/11/25 00:09:33;;;;;;;;;;;;;;;;;;172059;28;785;-50
2021/11/25 00:09:38;;;;;;;;;;;;;;;;;;171903;28;969;-49
2021/11/25 00:09:43;;;;;;;;;;;;;;;;;;171957;28;838;-51
2021/11/25 00:09:48;;;;;;;;;;;;;;;;;;171951;28;1161;-49
2021/11/25 00:09:54;;;;;;;;;;;;;;;;;;171589;28;1719;-49
2021/11/25 00:09:59;;;;;;;;;;;;;;;;;;172015;28;995;-49
2021/11/25 00:10:04;;;;;;;;;;;;;;;;;;171887;28;1015;-49
2021/11/25 00:10:09;;;;;;;;;;;;;;;;;;172079;28;995;-50
2021/11/25 00:10:15;;;;;;;;;;;;;;;;;;172026;28;1185;-51
2021/11/25 00:10:20;;;;;;;;;;;;;;;;;;172099;28;888;-51
2021/11/25 00:10:25;;;;;;;;;;;;;;;;;;171953;28;1205;-50
2021/11/25 00:10:30;;;;;;;;;;;;;;;;;;172045;28;816;-50
2021/11/25 00:10:35;;;;;;;;;;;;;;;;;;172002;28;864;-50
2021/11/25 00:10:42;;;;;;;;;;;;;;;;;;171610;28;4284;-50
2021/11/25 00:10:47;;;;;;;;;;;;;;;;;;171989;28;833;-49
2021/11/25 00:10:52;;;;;;;;;;;;;;;;;;171387;28;881;-50
2021/11/25 00:10:58;;;;;;;;;;;;;;;;;;171405;28;798;-50
2021/11/25 00:11:03;;;;;;;;;;;;;;;;;;171722;28;1080;-49
2021/11/25 00:11:09;;;;;;;;;;;;;;;;;;171980;28;891;-50
2021/11/25 00:11:14;;;;;;;;;;;;;;;;;;172071;28;1175;-50
2021/11/25 00:11:19;;;;;;;;;;;;;;;;;;171967;28;813;-50
2021/11/25 00:11:25;;;;;;;;;;;;;;;;;;172012;28;1292;-49
2021/11/25 00:11:30;;;;;;;;;;;;;;;;;;172104;28;785;-50
2021/11/25 00:11:35;;;;;;;;;;;;;;;;;;172002;28;1123;-50
2021/11/25 00:11:40;;;;;;;;;;;;;;;;;;172035;28;844;-49
2021/11/25 00:11:45;;;;;;;;;;;;;;;;;;172014;28;881;-50
2021/11/25 00:11:51;;;;;;;;;;;;;;;;;;171916;28;1308;-51
2021/11/25 00:11:56;;;;;;;;;;;;;;;;;;172086;28;828;-50
2021/11/25 00:12:01;;;;;;;;;;;;;;;;;;172036;28;1182;-49
2021/11/25 00:12:06;;;;;;;;;;;;;;;;;;172101;28;805;-50
2021/11/25 00:12:11;;;;;;;;;;;;;;;;;;172028;28;1150;-51
2021/11/25 00:12:17;;;;;;;;;;;;;;;;;;172102;28;1050;-50
2021/11/25 00:12:22;;;;;;;;;;;;;;;;;;172089;28;1126;-50
2021/11/25 00:12:27;;;;;;;;;;;;;;;;;;172102;28;954;-50
2021/11/25 00:12:32;;;;;;;;;;;;;;;;;;172060;28;807;-51
2021/11/25 00:12:37;;;;;;;;;;;;;;;;;;171990;28;1178;-50
2021/11/25 00:12:43;;;;;;;;;;;;;;;;;;171989;28;979;-51
2021/11/25 00:12:48;;;;;;;;;;;;;;;;;;172044;28;1263;-51
2021/11/25 00:12:54;;;;;;;;;;;;;;;;;;172092;28;836;-51
2021/11/25 00:12:59;;;;;;;;;;;;;;;;;;172027;28;1257;-51
2021/11/25 00:13:04;;;;;;;;;;;;;;;;;;172114;28;741;-50
2021/11/25 00:13:10;;;;;;;;;;;;;;;;;;172053;28;1158;-50
2021/11/25 00:13:15;;;;;;;;;;;;;;;;;;172027;28;1038;-50
2021/11/25 00:13:20;;;;;;;;;;;;;;;;;;172065;28;785;-50
2021/11/25 00:13:26;;;;;;;;;;;;;;;;;;171330;28;809;-49
2021/11/25 00:13:31;;;;;;;;;;;;;;;;;;171425;28;825;-51
2021/11/25 00:13:36;;;;;;;;;;;;;;;;;;171792;28;1103;-50
2021/11/25 00:13:41;;;;;;;;;;;;;;;;;;171940;28;816;-51
2021/11/25 00:13:46;;;;;;;;;;;;;;;;;;171888;28;1307;-48
2021/11/25 00:13:51;;;;;;;;;;;;;;;;;;172038;28;900;-51
2021/11/25 00:13:57;;;;;;;;;;;;;;;;;;171990;28;1209;-51
2021/11/25 00:14:02;;;;;;;;;;;;;;;;;;172117;28;1015;-50
2021/11/25 00:14:07;;;;;;;;;;;;;;;;;;172156;28;975;-50
2021/11/25 00:14:12;;;;;;;;;;;;;;;;;;172098;28;1292;-50
2021/11/25 00:14:17;;;;;;;;;;;;;;;;;;172185;28;931;-51
2021/11/25 00:14:23;;;;;;;;;;;;;;;;;;172126;28;1221;-49
2021/11/25 00:14:28;;;;;;;;;;;;;;;;;;172104;28;903;-49
2021/11/25 00:14:35;;;;;;;;;;;;;;;;;;172071;28;1074;-51
2021/11/25 00:14:41;;;;;;;;;;;;;;;;;;171999;28;883;-50
2021/11/25 00:14:46;;;;;;;;;;;;;;;;;;171561;28;4454;-49
2021/11/25 00:14:51;;;;;;;;;;;;;;;;;;172136;28;861;-49
2021/11/25 00:14:56;;;;;;;;;;;;;;;;;;172098;28;1237;-51
2021/11/25 00:15:02;;;;;;;;;;;;;;;;;;172096;28;931;-50
2021/11/25 00:15:09;;;;;;;;;;;;;;;;;;172112;28;1169;-50
2021/11/25 00:15:14;;;;;;;;;;;;;;;;;;172156;28;896;-51
2021/11/25 00:15:19;;;;;;;;;;;;;;;;;;172105;28;1294;-50
2021/11/25 00:15:26;;;;;;;;;;;;;;;;;;172125;28;1019;-51
2021/11/25 00:15:31;;;;;;;;;;;;;;;;;;172067;28;1300;-50
2021/11/25 00:15:36;;;;;;;;;;;;;;;;;;172086;28;868;-51
2021/11/25 00:15:41;;;;;;;;;;;;;;;;;;172022;28;781;-51
2021/11/25 00:15:47;;;;;;;;;;;;;;;;;;171976;28;1229;-50
2021/11/25 00:15:52;;;;;;;;;;;;;;;;;;172016;28;881;-52
2021/11/25 00:15:57;;;;;;;;;;;;;;;;;;172058;28;1182;-50
2021/11/25 00:16:02;;;;;;;;;;;;;;;;;;172099;28;849;-50
2021/11/25 00:16:08;;;;;;;;;;;;;;;;;;172047;28;1194;-50
2021/11/25 00:16:13;;;;;;;;;;;;;;;;;;172193;28;884;-50
2021/11/25 00:16:18;;;;;;;;;;;;;;;;;;172056;28;1217;-51
2021/11/25 00:16:23;;;;;;;;;;;;;;;;;;172116;28;797;-51
2021/11/25 00:16:29;;;;;;;;;;;;;;;;;;172102;28;1078;-51
2021/11/25 00:16:34;;;;;;;;;;;;;;;;;;172068;28;892;-51
2021/11/25 00:16:40;;;;;;;;;;;;;;;;;;172048;28;773;-51
2021/11/25 00:16:46;;;;;;;;;;;;;;;;;;171970;28;1316;-51
2021/11/25 00:16:51;;;;;;;;;;;;;;;;;;171978;28;879;-51
2021/11/25 00:16:56;;;;;;;;;;;;;;;;;;172033;28;1293;-49
2021/11/25 00:17:01;;;;;;;;;;;;;;;;;;171994;28;782;-51
2021/11/25 00:17:07;;;;;;;;;;;;;;;;;;171982;28;1186;-51
2021/11/25 00:17:12;;;;;;;;;;;;;;;;;;172053;28;813;-52
2021/11/25 00:17:17;;;;;;;;;;;;;;;;;;172104;28;1170;-49
2021/11/25 00:17:22;;;;;;;;;;;;;;;;;;172070;28;786;-49
2021/11/25 00:17:27;;;;;;;;;;;;;;;;;;171328;28;1416;-50
2021/11/25 00:17:32;;;;;;;;;;;;;;;;;;171101;28;1272;-49
2021/11/25 00:17:38;;;;;;;;;;;;;;;;;;170956;28;1644;-51
2021/11/25 00:17:43;;;;;;;;;;;;;;;;;;171241;28;1127;-51
2021/11/25 00:17:49;;;;;;;;;;;;;;;;;;171357;28;955;-52
2021/11/25 00:17:54;;;;;;;;;;;;;;;;;;171312;28;1135;-50
2021/11/25 00:17:59;;;;;;;;;;;;;;;;;;171385;28;821;-51
2021/11/25 00:18:04;;;;;;;;;;;;;;;;;;171382;28;1790;-50
2021/11/25 00:18:09;;;;;;;;;;;;;;;;;;171330;28;856;-51
2021/11/25 00:18:18;;;;;;;;;;;;;;;;;;171450;28;789;-50
2021/11/25 00:18:23;;;;;;;;;;;;;;;;;;171373;28;876;-51
2021/11/25 00:18:28;;;;;;;;;;;;;;;;;;171325;28;1219;-50
2021/11/25 00:18:33;;;;;;;;;;;;;;;;;;171371;28;854;-50
2021/11/25 00:18:38;;;;;;;;;;;;;;;;;;171230;28;1096;-50
2021/11/25 00:18:44;;;;;;;;;;;;;;;;;;171382;28;4440;-50
2021/11/25 00:18:49;;;;;;;;;;;;;;;;;;172055;28;924;-50
2021/11/25 00:18:54;;;;;;;;;;;;;;;;;;172014;28;1261;-50
2021/11/25 00:18:59;;;;;;;;;;;;;;;;;;171988;28;1106;-51
2021/11/25 00:19:04;;;;;;;;;;;;;;;;;;172040;28;1221;-50
2021/11/25 00:19:10;;;;;;;;;;;;;;;;;;172088;28;786;-50
2021/11/25 00:19:15;;;;;;;;;;;;;;;;;;172008;28;1150;-50
2021/11/25 00:19:20;;;;;;;;;;;;;;;;;;172082;28;820;-49
2021/11/25 00:19:25;;;;;;;;;;;;;;;;;;171547;28;1682;-49
2021/11/25 00:19:30;;;;;;;;;;;;;;;;;;172113;28;821;-50
2021/11/25 00:19:35;;;;;;;;;;;;;;;;;;172024;28;852;-51
2021/11/25 00:19:41;;;;;;;;;;;;;;;;;;172095;28;1340;-51
2021/11/25 00:19:46;;;;;;;;;;;;;;;;;;172035;28;844;-51
2021/11/25 00:19:51;;;;;;;;;;;;;;;;;;172074;28;1178;-50
2021/11/25 00:19:56;;;;;;;;;;;;;;;;;;171985;28;869;-50
2021/11/25 00:20:02;;;;;;;;;;;;;;;;;;171919;28;1117;-51
2021/11/25 00:20:09;;;;;;;;;;;;;;;;;;172117;28;999;-50
2021/11/25 00:20:14;;;;;;;;;;;;;;;;;;171976;28;1206;-51
2021/11/25 00:20:20;;;;;;;;;;;;;;;;;;172048;28;809;-51
2021/11/25 00:20:25;;;;;;;;;;;;;;;;;;171957;28;1210;-52
2021/11/25 00:20:31;;;;;;;;;;;;;;;;;;172077;28;773;-50
2021/11/25 00:20:36;;;;;;;;;;;;;;;;;;172005;28;884;-51
2021/11/25 00:20:41;;;;;;;;;;;;;;;;;;171455;28;1615;-50
2021/11/25 00:20:46;;;;;;;;;;;;;;;;;;171144;28;1607;-51
2021/11/25 00:20:53;;;;;;;;;;;;;;;;;;171280;28;1448;-51
2021/11/25 00:20:58;;;;;;;;;;;;;;;;;;172087;28;821;-52
2021/11/25 00:21:03;;;;;;;;;;;;;;;;;;171989;28;1241;-50
2021/11/25 00:21:10;;;;;;;;;;;;;;;;;;171945;28;746;-51
2021/11/25 00:21:15;;;;;;;;;;;;;;;;;;171844;28;992;-51
2021/11/25 00:21:20;;;;;;;;;;;;;;;;;;171371;28;860;-50
2021/11/25 00:21:25;;;;;;;;;;;;;;;;;;171618;28;1205;-51
2021/11/25 00:21:31;;;;;;;;;;;;;;;;;;172088;28;734;-50
2021/11/25 00:21:36;;;;;;;;;;;;;;;;;;171998;28;1115;-49
2021/11/25 00:21:42;;;;;;;;;;;;;;;;;;172061;28;872;-50
2021/11/25 00:21:47;;;;;;;;;;;;;;;;;;171841;28;1166;-51
2021/11/25 00:21:52;;;;;;;;;;;;;;;;;;171866;28;718;-49
2021/11/25 00:21:57;;;;;;;;;;;;;;;;;;172054;28;781;-51
2021/11/25 00:22:03;;;;;;;;;;;;;;;;;;171970;28;1170;-51
2021/11/25 00:22:08;;;;;;;;;;;;;;;;;;172005;28;862;-53
2021/11/25 00:22:13;;;;;;;;;;;;;;;;;;172019;28;1217;-50
2021/11/25 00:22:18;;;;;;;;;;;;;;;;;;172122;28;995;-51
2021/11/25 00:22:23;;;;;;;;;;;;;;;;;;172002;28;1225;-51
2021/11/25 00:22:28;;;;;;;;;;;;;;;;;;172107;28;896;-50
2021/11/25 00:22:34;;;;;;;;;;;;;;;;;;172055;28;1038;-52
2021/11/25 00:22:39;;;;;;;;;;;;;;;;;;171402;28;833;-51
2021/11/25 00:22:44;;;;;;;;;;;;;;;;;;170876;28;4207;-53
2021/11/25 00:22:49;;;;;;;;;;;;;;;;;;171814;28;1233;-49
2021/11/25 00:22:55;;;;;;;;;;;;;;;;;;172019;28;919;-49
2021/11/25 00:23:00;;;;;;;;;;;;;;;;;;172070;28;1189;-51
2021/11/25 00:23:05;;;;;;;;;;;;;;;;;;172129;28;868;-51
2021/11/25 00:23:10;;;;;;;;;;;;;;;;;;172064;28;1099;-50
2021/11/25 00:23:15;;;;;;;;;;;;;;;;;;172115;28;844;-51
2021/11/25 00:23:21;;;;;;;;;;;;;;;;;;172020;28;1209;-51
2021/11/25 00:23:26;;;;;;;;;;;;;;;;;;172046;28;928;-51
2021/11/25 00:23:31;;;;;;;;;;;;;;;;;;172162;28;939;-50
2021/11/25 00:23:37;;;;;;;;;;;;;;;;;;172013;28;1098;-51
2021/11/25 00:23:44;;;;;;;;;;;;;;;;;;172122;28;856;-50
2021/11/25 00:23:49;;;;;;;;;;;;;;;;;;171844;28;1798;-50
2021/11/25 00:23:54;;;;;;;;;;;;;;;;;;171996;28;750;-51
2021/11/25 00:23:59;;;;;;;;;;;;;;;;;;172017;28;1189;-53
2021/11/25 00:24:05;;;;;;;;;;;;;;;;;;172101;28;785;-51
2021/11/25 00:24:10;;;;;;;;;;;;;;;;;;172095;28;1162;-50
2021/11/25 00:24:16;;;;;;;;;;;;;;;;;;172166;28;872;-51
2021/11/25 00:24:21;;;;;;;;;;;;;;;;;;172104;28;1216;-50
2021/11/25 00:24:26;;;;;;;;;;;;;;;;;;171999;28;1911;-50
2021/11/25 00:24:31;;;;;;;;;;;;;;;;;;172145;28;865;-50
2021/11/25 00:24:36;;;;;;;;;;;;;;;;;;171435;28;1070;-51
2021/11/25 00:24:41;;;;;;;;;;;;;;;;;;171459;28;1054;-50
2021/11/25 00:24:47;;;;;;;;;;;;;;;;;;171737;28;1134;-50
2021/11/25 00:24:52;;;;;;;;;;;;;;;;;;171658;28;1470;-49
2021/11/25 00:24:57;;;;;;;;;;;;;;;;;;171901;28;952;-49
2021/11/25 00:25:02;;;;;;;;;;;;;;;;;;172085;28;1031;-49
2021/11/25 00:25:08;;;;;;;;;;;;;;;;;;172079;28;1194;-50
2021/11/25 00:25:13;;;;;;;;;;;;;;;;;;172094;28;761;-51
2021/11/25 00:25:19;;;;;;;;;;;;;;;;;;172120;28;1292;-50
2021/11/25 00:25:24;;;;;;;;;;;;;;;;;;172141;28;884;-50
2021/11/25 00:25:29;;;;;;;;;;;;;;;;;;172107;28;812;-50
2021/11/25 00:25:34;;;;;;;;;;;;;;;;;;172087;28;1190;-50
2021/11/25 00:25:39;;;;;;;;;;;;;;;;;;172174;28;1038;-50
2021/11/25 00:25:44;;;;;;;;;;;;;;;;;;172021;28;1192;-50
2021/11/25 00:25:50;;;;;;;;;;;;;;;;;;172036;28;931;-49
2021/11/25 00:25:55;;;;;;;;;;;;;;;;;;171859;28;1212;-51
2021/11/25 00:26:00;;;;;;;;;;;;;;;;;;172082;28;845;-51
2021/11/25 00:26:05;;;;;;;;;;;;;;;;;;172155;28;773;-51
2021/11/25 00:26:11;;;;;;;;;;;;;;;;;;172119;28;1025;-50
2021/11/25 00:26:16;;;;;;;;;;;;;;;;;;172027;28;837;-49
2021/11/25 00:26:21;;;;;;;;;;;;;;;;;;171375;28;1580;-51
2021/11/25 00:26:27;;;;;;;;;;;;;;;;;;172017;28;841;-50
2021/11/25 00:26:32;;;;;;;;;;;;;;;;;;170950;28;1446;-52
2021/11/25 00:26:38;;;;;;;;;;;;;;;;;;171436;28;805;-49
2021/11/25 00:26:43;;;;;;;;;;;;;;;;;;171585;28;1178;-51
2021/11/25 00:26:48;;;;;;;;;;;;;;;;;;171534;28;9349;-51
2021/11/25 00:26:53;;;;;;;;;;;;;;;;;;171933;28;1182;-51
2021/11/25 00:26:58;;;;;;;;;;;;;;;;;;172095;28;849;-50
2021/11/25 00:27:04;;;;;;;;;;;;;;;;;;171957;28;1081;-50
2021/11/25 00:27:09;;;;;;;;;;;;;;;;;;171980;28;1367;-51
2021/11/25 00:27:14;;;;;;;;;;;;;;;;;;172016;28;801;-52
2021/11/25 00:27:19;;;;;;;;;;;;;;;;;;171415;28;1531;-51
2021/11/25 00:27:24;;;;;;;;;;;;;;;;;;172042;28;848;-51
2021/11/25 00:27:29;;;;;;;;;;;;;;;;;;171988;28;1087;-50
2021/11/25 00:27:35;;;;;;;;;;;;;;;;;;171986;28;1039;-49
2021/11/25 00:27:40;;;;;;;;;;;;;;;;;;172011;28;1171;-49
2021/11/25 00:27:45;;;;;;;;;;;;;;;;;;171614;28;1588;-49
2021/11/25 00:27:51;;;;;;;;;;;;;;;;;;171866;28;840;-51
2021/11/25 00:27:56;;;;;;;;;;;;;;;;;;171839;28;897;-50
2021/11/25 00:28:01;;;;;;;;;;;;;;;;;;171992;28;1070;-49
2021/11/25 00:28:06;;;;;;;;;;;;;;;;;;171950;28;1178;-50
2021/11/25 00:28:11;;;;;;;;;;;;;;;;;;172092;28;917;-49
2021/11/25 00:28:17;;;;;;;;;;;;;;;;;;171993;28;1170;-49
2021/11/25 00:28:22;;;;;;;;;;;;;;;;;;172080;28;1038;-49
2021/11/25 00:28:27;;;;;;;;;;;;;;;;;;172003;28;1154;-49
2021/11/25 00:28:32;;;;;;;;;;;;;;;;;;172078;28;895;-50
2021/11/25 00:28:38;;;;;;;;;;;;;;;;;;172117;28;856;-51
2021/11/25 00:28:43;;;;;;;;;;;;;;;;;;172037;28;1233;-50
2021/11/25 00:28:48;;;;;;;;;;;;;;;;;;172084;28;1074;-52
2021/11/25 00:28:53;;;;;;;;;;;;;;;;;;172010;28;1165;-51
2021/11/25 00:28:59;;;;;;;;;;;;;;;;;;172162;28;951;-51
2021/11/25 00:29:04;;;;;;;;;;;;;;;;;;172014;28;1070;-50
2021/11/25 00:29:09;;;;;;;;;;;;;;;;;;172133;28;872;-51
2021/11/25 00:29:14;;;;;;;;;;;;;;;;;;171503;28;1936;-50
2021/11/25 00:29:19;;;;;;;;;;;;;;;;;;172122;28;877;-50
2021/11/25 00:29:24;;;;;;;;;;;;;;;;;;172112;28;887;-51
2021/11/25 00:29:30;;;;;;;;;;;;;;;;;;172048;28;1197;-51
2021/11/25 00:29:35;;;;;;;;;;;;;;;;;;172156;28;837;-51
2021/11/25 00:29:40;;;;;;;;;;;;;;;;;;172066;28;1173;-51
2021/11/25 00:29:45;;;;;;;;;;;;;;;;;;172069;28;899;-51
2021/11/25 00:29:51;;;;;;;;;;;;;;;;;;172004;28;1154;-50
2021/11/25 00:29:56;;;;;;;;;;;;;;;;;;172121;28;809;-51
2021/11/25 00:30:02;;;;;;;;;;;;;;;;;;171999;28;1050;-51
2021/11/25 00:30:07;;;;;;;;;;;;;;;;;;172130;28;809;-50
2021/11/25 00:30:12;;;;;;;;;;;;;;;;;;172166;28;856;-50
2021/11/25 00:30:18;;;;;;;;;;;;;;;;;;172123;28;931;-50
2021/11/25 00:30:23;;;;;;;;;;;;;;;;;;172171;28;770;-51
2021/11/25 00:30:28;;;;;;;;;;;;;;;;;;172049;28;1221;-52
2021/11/25 00:30:33;;;;;;;;;;;;;;;;;;172040;28;948;-51
2021/11/25 00:30:38;;;;;;;;;;;;;;;;;;172047;28;1218;-51
2021/11/25 00:30:43;;;;;;;;;;;;;;;;;;170776;28;4483;-51
2021/11/25 00:30:49;;;;;;;;;;;;;;;;;;171656;28;874;-50
2021/11/25 00:30:54;;;;;;;;;;;;;;;;;;171926;28;983;-49
2021/11/25 00:30:59;;;;;;;;;;;;;;;;;;172060;28;706;-49
2021/11/25 00:31:05;;;;;;;;;;;;;;;;;;171983;28;1277;-51
2021/11/25 00:31:10;;;;;;;;;;;;;;;;;;172057;28;816;-51
2021/11/25 00:31:15;;;;;;;;;;;;;;;;;;172081;28;1170;-50
2021/11/25 00:31:20;;;;;;;;;;;;;;;;;;172076;28;904;-50
2021/11/25 00:31:25;;;;;;;;;;;;;;;;;;172010;28;1170;-50
2021/11/25 00:31:31;;;;;;;;;;;;;;;;;;172029;28;881;-50
2021/11/25 00:31:36;;;;;;;;;;;;;;;;;;172024;28;1031;-51
2021/11/25 00:31:41;;;;;;;;;;;;;;;;;;172060;28;873;-51
2021/11/25 00:31:46;;;;;;;;;;;;;;;;;;171984;28;962;-51
2021/11/25 00:31:51;;;;;;;;;;;;;;;;;;171797;28;1201;-51
2021/11/25 00:31:56;;;;;;;;;;;;;;;;;;172058;28;781;-51
2021/11/25 00:32:02;;;;;;;;;;;;;;;;;;171945;28;1205;-51
2021/11/25 00:32:07;;;;;;;;;;;;;;;;;;172079;28;896;-51
2021/11/25 00:32:12;;;;;;;;;;;;;;;;;;171971;28;1174;-50
2021/11/25 00:32:17;;;;;;;;;;;;;;;;;;171978;28;829;-52
2021/11/25 00:32:22;;;;;;;;;;;;;;;;;;171196;28;1254;-49
2021/11/25 00:32:28;;;;;;;;;;;;;;;;;;171341;28;802;-49
2021/11/25 00:32:33;;;;;;;;;;;;;;;;;;171317;28;921;-50
2021/11/25 00:32:39;;;;;;;;;;;;;;;;;;171293;28;1166;-51
2021/11/25 00:32:44;;;;;;;;;;;;;;;;;;171411;28;805;-51
2021/11/25 00:32:49;;;;;;;;;;;;;;;;;;171223;28;1206;-52
2021/11/25 00:32:54;;;;;;;;;;;;;;;;;;171177;28;935;-50
2021/11/25 00:32:59;;;;;;;;;;;;;;;;;;171393;28;1265;-50
2021/11/25 00:33:05;;;;;;;;;;;;;;;;;;171373;28;770;-49
2021/11/25 00:33:10;;;;;;;;;;;;;;;;;;171363;28;1373;-49
2021/11/25 00:33:15;;;;;;;;;;;;;;;;;;171382;28;885;-49
2021/11/25 00:33:20;;;;;;;;;;;;;;;;;;171311;28;805;-49
2021/11/25 00:33:25;;;;;;;;;;;;;;;;;;171173;28;1107;-49
2021/11/25 00:33:31;;;;;;;;;;;;;;;;;;171334;28;879;-50
2021/11/25 00:33:36;;;;;;;;;;;;;;;;;;171246;28;1183;-51
2021/11/25 00:33:41;;;;;;;;;;;;;;;;;;171291;28;801;-51
2021/11/25 00:33:46;;;;;;;;;;;;;;;;;;171201;28;1261;-51
2021/11/25 00:33:51;;;;;;;;;;;;;;;;;;171204;28;992;-50
2021/11/25 00:33:57;;;;;;;;;;;;;;;;;;171159;28;1162;-49
2021/11/25 00:34:02;;;;;;;;;;;;;;;;;;171145;28;888;-51
2021/11/25 00:34:07;;;;;;;;;;;;;;;;;;171255;28;494;-50
2021/11/25 00:34:12;;;;;;;;;;;;;;;;;;171811;28;1213;-50
2021/11/25 00:34:17;;;;;;;;;;;;;;;;;;171951;28;920;-50
2021/11/25 00:34:22;;;;;;;;;;;;;;;;;;171446;28;1471;-51
2021/11/25 00:34:28;;;;;;;;;;;;;;;;;;171943;28;735;-51
2021/11/25 00:34:33;;;;;;;;;;;;;;;;;;172046;28;1099;-50
2021/11/25 00:34:38;;;;;;;;;;;;;;;;;;172079;28;834;-52
2021/11/25 00:34:43;;;;;;;;;;;;;;;;;;172071;28;888;-50
2021/11/25 00:34:48;;;;;;;;;;;;;;;;;;171609;28;4485;-51
2021/11/25 00:34:54;;;;;;;;;;;;;;;;;;172043;28;730;-50
2021/11/25 00:34:59;;;;;;;;;;;;;;;;;;172055;28;1205;-50
2021/11/25 00:35:04;;;;;;;;;;;;;;;;;;172026;28;1130;-50
2021/11/25 00:35:10;;;;;;;;;;;;;;;;;;171999;28;1192;-49
2021/11/25 00:35:15;;;;;;;;;;;;;;;;;;172037;28;865;-51
2021/11/25 00:35:20;;;;;;;;;;;;;;;;;;172098;28;1173;-49
2021/11/25 00:35:25;;;;;;;;;;;;;;;;;;172135;28;924;-49
2021/11/25 00:35:30;;;;;;;;;;;;;;;;;;172109;28;797;-51
2021/11/25 00:35:36;;;;;;;;;;;;;;;;;;172084;28;1327;-50
2021/11/25 00:35:41;;;;;;;;;;;;;;;;;;172122;28;797;-50
2021/11/25 00:35:46;;;;;;;;;;;;;;;;;;172060;28;1166;-51
2021/11/25 00:35:51;;;;;;;;;;;;;;;;;;172054;28;876;-50
2021/11/25 00:35:56;;;;;;;;;;;;;;;;;;171975;28;1201;-50
2021/11/25 00:36:01;;;;;;;;;;;;;;;;;;172016;28;1085;-49
2021/11/25 00:36:07;;;;;;;;;;;;;;;;;;172057;28;1146;-49
2021/11/25 00:36:12;;;;;;;;;;;;;;;;;;172176;28;821;-50
2021/11/25 00:36:17;;;;;;;;;;;;;;;;;;171777;28;1554;-49
2021/11/25 00:36:22;;;;;;;;;;;;;;;;;;171292;28;1532;-51
2021/11/25 00:36:27;;;;;;;;;;;;;;;;;;171921;28;744;-51
2021/11/25 00:36:33;;;;;;;;;;;;;;;;;;171707;28;1265;-52
2021/11/25 00:36:38;;;;;;;;;;;;;;;;;;172138;28;678;-50
2021/11/25 00:36:43;;;;;;;;;;;;;;;;;;172101;28;1217;-51
2021/11/25 00:36:48;;;;;;;;;;;;;;;;;;172121;28;789;-51
2021/11/25 00:36:54;;;;;;;;;;;;;;;;;;172002;28;1196;-51
2021/11/25 00:36:59;;;;;;;;;;;;;;;;;;171505;28;1501;-52
2021/11/25 00:37:04;;;;;;;;;;;;;;;;;;171458;28;1493;-50
2021/11/25 00:37:09;;;;;;;;;;;;;;;;;;171870;28;1198;-51
2021/11/25 00:37:14;;;;;;;;;;;;;;;;;;172101;28;885;-50
2021/11/25 00:37:20;;;;;;;;;;;;;;;;;;172048;28;1181;-51
2021/11/25 00:37:25;;;;;;;;;;;;;;;;;;172043;28;880;-52
2021/11/25 00:37:30;;;;;;;;;;;;;;;;;;172142;28;1221;-51
2021/11/25 00:37:37;;;;;;;;;;;;;;;;;;172019;28;912;-51
2021/11/25 00:37:42;;;;;;;;;;;;;;;;;;172065;28;1162;-49